Time;durP1;ratioP1;P1;durP2;ratioP2;P2;SDS_P1;SDS_P2;PMS_P1;PMS_P2;Temp;Humidity;BMP_temperature;BMP_pressure;BME280_temperature;BME280_humidity;BME280_pressure;Samples;Min_cycle;Max_cycle;Signal;HPM_P1;HPM_P2
2023/10/23 00:00:42;;;;;;;7.43;5.72;;;;;;;;;;5046544;27;100312;-78
2023/10/23 00:03:10;;;;;;;6.72;5.28;;;;;;;;;;5050824;27;100647;-78
2023/10/23 00:05:37;;;;;;;9.43;4.78;;;;;;;;;;5049506;27;100105;-78
2023/10/23 00:08:04;;;;;;;9.50;4.50;;;;;;;;;;5065690;27;101316;-78
2023/10/23 00:10:30;;;;;;;11.18;4.90;;;;;;;;;;5055989;27;98960;-76
2023/10/23 00:12:56;;;;;;;6.82;4.15;;;;;;;;;;5055201;27;98976;-77
2023/10/23 00:15:23;;;;;;;5.00;4.10;;;;;;;;;;5044367;27;100158;-77
2023/10/23 00:17:49;;;;;;;4.65;4.13;;;;;;;;;;5047035;27;100376;-78
2023/10/23 00:20:16;;;;;;;7.50;3.95;;;;;;;;;;5046244;27;99217;-78
2023/10/23 00:22:42;;;;;;;4.72;4.00;;;;;;;;;;5046880;27;101526;-78
2023/10/23 00:25:09;;;;;;;8.52;4.63;;;;;;;;;;5063606;27;100166;-77
2023/10/23 00:27:35;;;;;;;9.05;4.32;;;;;;;;;;5064879;27;100286;-77
2023/10/23 00:30:02;;;;;;;7.47;4.25;;;;;;;;;;5060342;27;99079;-77
2023/10/23 00:32:28;;;;;;;11.57;4.47;;;;;;;;;;5054936;27;100188;-77
2023/10/23 00:34:55;;;;;;;9.15;5.22;;;;;;;;;;5066182;27;99413;-75
2023/10/23 00:37:21;;;;;;;5.25;4.78;;;;;;;;;;5063907;27;101149;-77
2023/10/23 00:39:47;;;;;;;9.80;5.25;;;;;;;;;;5056689;27;99680;-77
2023/10/23 00:42:15;;;;;;;5.25;4.85;;;;;;;;;;5065086;27;101513;-78
2023/10/23 00:44:42;;;;;;;5.18;4.65;;;;;;;;;;5057008;27;100015;-76
2023/10/23 00:47:09;;;;;;;5.90;4.88;;;;;;;;;;5068512;27;98692;-78
2023/10/23 00:49:36;;;;;;;11.07;5.60;;;;;;;;;;5065141;27;100230;-78
2023/10/23 00:52:03;;;;;;;6.20;5.30;;;;;;;;;;5064413;27;99169;-78
2023/10/23 00:54:31;;;;;;;6.05;5.45;;;;;;;;;;5050806;27;99189;-78
2023/10/23 00:57:02;;;;;;;7.18;5.05;;;;;;;;;;5063321;27;99349;-76
2023/10/23 00:59:29;;;;;;;5.55;5.15;;;;;;;;;;5056299;27;100875;-76
2023/10/23 01:01:56;;;;;;;7.82;5.38;;;;;;;;;;5056621;27;99039;-77
2023/10/23 01:04:24;;;;;;;5.68;5.18;;;;;;;;;;5063040;27;99084;-78
2023/10/23 01:06:50;;;;;;;6.93;5.97;;;;;;;;;;5060909;27;100182;-78
2023/10/23 01:09:17;;;;;;;6.07;5.40;;;;;;;;;;5066686;27;99850;-76
2023/10/23 01:11:44;;;;;;;5.47;5.07;;;;;;;;;;5063940;27;101521;-78
2023/10/23 01:14:10;;;;;;;7.30;5.63;;;;;;;;;;5063026;27;98486;-79
2023/10/23 01:16:37;;;;;;;6.72;5.55;;;;;;;;;;5055281;27;100666;-77
2023/10/23 01:19:04;;;;;;;5.72;5.10;;;;;;;;;;5065404;27;98930;-78
2023/10/23 01:21:31;;;;;;;6.75;5.22;;;;;;;;;;5063469;27;101005;-77
2023/10/23 01:23:58;;;;;;;5.38;4.93;;;;;;;;;;5052333;27;100514;-78
2023/10/23 01:26:25;;;;;;;7.10;5.65;;;;;;;;;;5054330;27;99117;-77
2023/10/23 01:28:52;;;;;;;10.00;5.15;;;;;;;;;;5068532;27;99270;-78
2023/10/23 01:31:19;;;;;;;5.63;5.25;;;;;;;;;;5054050;27;98867;-76
2023/10/23 01:33:45;;;;;;;11.55;5.53;;;;;;;;;;5050614;27;99916;-76
2023/10/23 01:36:12;;;;;;;6.38;5.85;;;;;;;;;;5063905;27;99990;-77
2023/10/23 01:38:38;;;;;;;6.43;5.93;;;;;;;;;;5065494;27;99385;-77
2023/10/23 01:41:05;;;;;;;5.95;5.45;;;;;;;;;;5064372;27;100298;-77
2023/10/23 01:43:31;;;;;;;6.80;5.72;;;;;;;;;;5056914;27;99809;-77
2023/10/23 01:45:59;;;;;;;7.25;6.03;;;;;;;;;;5055341;27;100079;-78
2023/10/23 01:48:26;;;;;;;8.20;6.25;;;;;;;;;;5061475;27;99253;-77
2023/10/23 01:50:54;;;;;;;5.88;5.35;;;;;;;;;;5068371;27;100611;-76
2023/10/23 01:53:22;;;;;;;9.52;5.70;;;;;;;;;;5044022;27;100251;-77
2023/10/23 01:55:49;;;;;;;6.63;5.97;;;;;;;;;;5059400;27;101908;-78
2023/10/23 01:58:15;;;;;;;7.00;6.50;;;;;;;;;;5061403;27;99529;-77
2023/10/23 02:00:41;;;;;;;14.23;7.15;;;;;;;;;;5054927;27;100162;-77
2023/10/23 02:03:08;;;;;;;7.25;6.43;;;;;;;;;;5062442;27;99709;-77
2023/10/23 02:05:35;;;;;;;7.65;6.68;;;;;;;;;;5053936;27;99354;-78
2023/10/23 02:08:02;;;;;;;7.95;7.25;;;;;;;;;;5063440;27;100237;-76
2023/10/23 02:10:29;;;;;;;8.80;7.13;;;;;;;;;;5062457;27;99315;-77
2023/10/23 02:12:55;;;;;;;7.30;6.60;;;;;;;;;;5086775;27;102566;-77
2023/10/23 02:15:21;;;;;;;7.50;6.78;;;;;;;;;;5060223;27;100384;-76
2023/10/23 02:17:48;;;;;;;12.60;7.20;;;;;;;;;;5063824;27;100496;-77
2023/10/23 02:20:15;;;;;;;7.68;6.65;;;;;;;;;;5060862;27;99323;-77
2023/10/23 02:22:43;;;;;;;7.40;6.72;;;;;;;;;;5081986;27;99914;-75
2023/10/23 02:25:09;;;;;;;8.00;6.82;;;;;;;;;;5064413;27;98583;-76
2023/10/23 02:27:36;;;;;;;8.45;7.72;;;;;;;;;;5056136;27;100562;-77
2023/10/23 02:30:03;;;;;;;14.07;7.63;;;;;;;;;;5064466;27;98943;-77
2023/10/23 02:32:29;;;;;;;14.50;6.88;;;;;;;;;;5062489;27;99194;-77
2023/10/23 02:34:58;;;;;;;8.00;7.18;;;;;;;;;;5063651;27;102221;-76
2023/10/23 02:37:25;;;;;;;10.45;7.65;;;;;;;;;;5049053;27;102484;-78
2023/10/23 02:39:53;;;;;;;7.68;6.97;;;;;;;;;;5067444;27;100124;-78
2023/10/23 02:42:20;;;;;;;10.88;7.65;;;;;;;;;;5071332;27;98896;-76
2023/10/23 02:44:46;;;;;;;9.63;7.43;;;;;;;;;;5070938;27;99364;-77
2023/10/23 02:47:14;;;;;;;8.98;7.63;;;;;;;;;;5070126;27;99107;-79
2023/10/23 02:49:40;;;;;;;9.27;7.50;;;;;;;;;;5069892;27;101100;-77
2023/10/23 02:52:07;;;;;;;8.95;7.25;;;;;;;;;;5066663;27;99543;-76
2023/10/23 02:54:35;;;;;;;9.68;8.20;;;;;;;;;;5049610;27;100166;-76
2023/10/23 02:57:02;;;;;;;8.77;7.88;;;;;;;;;;5071057;27;98799;-76
2023/10/23 02:59:30;;;;;;;8.23;7.43;;;;;;;;;;5067086;27;99878;-77
2023/10/23 03:01:56;;;;;;;10.85;7.70;;;;;;;;;;5065485;27;99079;-76
2023/10/23 03:04:23;;;;;;;8.02;7.32;;;;;;;;;;5067422;27;100217;-77
2023/10/23 03:06:49;;;;;;;8.75;7.88;;;;;;;;;;5059467;27;99091;-76
2023/10/23 03:09:16;;;;;;;8.10;7.43;;;;;;;;;;5067893;27;98946;-77
2023/10/23 03:11:43;;;;;;;9.05;7.07;;;;;;;;;;5070436;27;100066;-77
2023/10/23 03:14:10;;;;;;;7.97;7.38;;;;;;;;;;5061920;27;99994;-78
2023/10/23 03:16:37;;;;;;;8.43;7.60;;;;;;;;;;5064685;27;98696;-78
2023/10/23 03:19:03;;;;;;;13.95;8.02;;;;;;;;;;5073771;27;98913;-77
2023/10/23 03:21:30;;;;;;;10.40;7.22;;;;;;;;;;5061385;27;98685;-77
2023/10/23 03:23:57;;;;;;;8.52;7.55;;;;;;;;;;5061205;27;99865;-77
2023/10/23 03:26:24;;;;;;;7.68;6.95;;;;;;;;;;5058011;27;99011;-77
2023/10/23 03:28:51;;;;;;;7.38;6.60;;;;;;;;;;5066523;27;100026;-77
2023/10/23 03:31:17;;;;;;;10.27;7.05;;;;;;;;;;5070423;27;98696;-77
2023/10/23 03:33:46;;;;;;;7.65;6.85;;;;;;;;;;5068406;27;99779;-77
2023/10/23 03:36:12;;;;;;;8.55;7.72;;;;;;;;;;5090218;27;101577;-77
2023/10/23 03:38:39;;;;;;;8.65;7.68;;;;;;;;;;5061744;27;99874;-77
2023/10/23 03:41:05;;;;;;;8.38;7.25;;;;;;;;;;5061341;27;100095;-77
2023/10/23 03:43:32;;;;;;;7.25;6.55;;;;;;;;;;5062258;27;99427;-76
2023/10/23 03:46:02;;;;;;;8.40;7.55;;;;;;;;;;5067262;27;101034;-78
2023/10/23 03:48:29;;;;;;;7.45;6.85;;;;;;;;;;5061742;27;99350;-77
2023/10/23 03:50:58;;;;;;;13.25;7.32;;;;;;;;;;5057668;27;101655;-77
2023/10/23 03:53:25;;;;;;;7.75;6.78;;;;;;;;;;5066191;27;100263;-77
2023/10/23 03:55:51;;;;;;;8.57;7.70;;;;;;;;;;5064318;27;100384;-77
2023/10/23 03:58:18;;;;;;;8.15;7.40;;;;;;;;;;5065572;27;100062;-79
2023/10/23 04:00:44;;;;;;;9.57;8.50;;;;;;;;;;5060550;27;99798;-77
2023/10/23 04:03:11;;;;;;;8.50;7.75;;;;;;;;;;5065938;27;99107;-78
2023/10/23 04:05:41;;;;;;;12.70;9.32;;;;;;;;;;5059459;27;100045;-77
2023/10/23 04:08:08;;;;;;;11.55;8.98;;;;;;;;;;5065711;27;99380;-77
2023/10/23 04:10:35;;;;;;;9.50;8.63;;;;;;;;;;5063351;27;99974;-76
2023/10/23 04:13:01;;;;;;;12.90;8.82;;;;;;;;;;5059141;27;100991;-77
2023/10/23 04:15:28;;;;;;;11.23;9.70;;;;;;;;;;5046732;27;100258;-76
2023/10/23 04:17:55;;;;;;;10.63;9.10;;;;;;;;;;5055304;27;99111;-76
2023/10/23 04:20:21;;;;;;;13.05;8.55;;;;;;;;;;5063552;27;100302;-76
2023/10/23 04:22:48;;;;;;;12.75;8.77;;;;;;;;;;5069405;27;99951;-75
2023/10/23 04:25:17;;;;;;;12.27;8.13;;;;;;;;;;5059415;27;100195;-77
2023/10/23 04:27:44;;;;;;;10.88;9.50;;;;;;;;;;5064412;27;100046;-76
2023/10/23 04:30:11;;;;;;;17.85;10.07;;;;;;;;;;5047502;27;99093;-76
2023/10/23 04:32:37;;;;;;;10.38;8.65;;;;;;;;;;5059676;27;100278;-76
2023/10/23 04:35:04;;;;;;;12.32;8.65;;;;;;;;;;5053612;27;100040;-78
2023/10/23 04:37:31;;;;;;;8.80;7.97;;;;;;;;;;5046282;27;99920;-77
2023/10/23 04:39:57;;;;;;;16.17;9.70;;;;;;;;;;5046712;27;100132;-77
2023/10/23 04:42:24;;;;;;;14.93;9.05;;;;;;;;;;5059777;27;100710;-77
2023/10/23 04:44:50;;;;;;;10.80;9.07;;;;;;;;;;5053649;27;100292;-77
2023/10/23 04:47:17;;;;;;;19.70;9.70;;;;;;;;;;5065854;27;99951;-77
2023/10/23 04:49:46;;;;;;;19.30;10.60;;;;;;;;;;5064925;27;100207;-77
2023/10/23 04:52:12;;;;;;;11.15;9.68;;;;;;;;;;5054557;27;99728;-77
2023/10/23 04:54:38;;;;;;;19.40;10.00;;;;;;;;;;5046829;27;98876;-77
2023/10/23 04:57:08;;;;;;;12.60;9.75;;;;;;;;;;5053837;27;99187;-77
2023/10/23 04:59:35;;;;;;;10.38;9.25;;;;;;;;;;5054024;27;100329;-77
2023/10/23 05:02:02;;;;;;;11.63;10.05;;;;;;;;;;5045774;27;100066;-77
2023/10/23 05:04:33;;;;;;;12.80;9.73;;;;;;;;;;5063979;27;100625;-77
2023/10/23 05:06:59;;;;;;;10.18;9.18;;;;;;;;;;5060795;27;100100;-78
2023/10/23 05:09:26;;;;;;;10.73;9.13;;;;;;;;;;5065589;27;100448;-78
2023/10/23 05:11:53;;;;;;;17.73;9.85;;;;;;;;;;5065303;27;100295;-77
2023/10/23 05:14:21;;;;;;;20.67;11.35;;;;;;;;;;5058555;27;100377;-77
2023/10/23 05:16:48;;;;;;;29.90;12.70;;;;;;;;;;5059213;27;101498;-77
2023/10/23 05:19:14;;;;;;;27.67;12.93;;;;;;;;;;5065512;27;99659;-78
2023/10/23 05:21:41;;;;;;;46.90;13.68;;;;;;;;;;5057547;27;100183;-78
2023/10/23 05:24:08;;;;;;;56.75;14.10;;;;;;;;;;5064086;27;98977;-77
2023/10/23 05:26:34;;;;;;;73.47;14.45;;;;;;;;;;5063458;27;101068;-78
2023/10/23 05:29:01;;;;;;;92.20;15.07;;;;;;;;;;5061785;27;98784;-78
2023/10/23 05:31:27;;;;;;;80.13;14.05;;;;;;;;;;5063272;27;100037;-77
2023/10/23 05:33:54;;;;;;;105.93;14.45;;;;;;;;;;5049411;27;101876;-76
2023/10/23 05:36:20;;;;;;;98.10;14.85;;;;;;;;;;5051218;27;100157;-76
2023/10/23 05:38:47;;;;;;;181.75;18.05;;;;;;;;;;5050327;27;100127;-76
2023/10/23 05:41:14;;;;;;;87.18;13.60;;;;;;;;;;5063582;27;99343;-76
2023/10/23 05:43:40;;;;;;;118.68;15.32;;;;;;;;;;5053284;27;99981;-76
2023/10/23 05:46:07;;;;;;;152.43;17.00;;;;;;;;;;5056313;27;100241;-76
2023/10/23 05:48:33;;;;;;;70.90;14.50;;;;;;;;;;5061727;27;100675;-78
2023/10/23 05:51:04;;;;;;;142.07;16.10;;;;;;;;;;5056379;27;101091;-77
2023/10/23 05:53:31;;;;;;;169.45;18.98;;;;;;;;;;5060414;27;99980;-78
2023/10/23 05:56:04;;;;;;;117.85;16.70;;;;;;;;;;5061833;27;100310;-77
2023/10/23 05:58:31;;;;;;;164.48;17.88;;;;;;;;;;5065323;27;100112;-77
2023/10/23 06:01:08;;;;;;;136.10;18.85;;;;;;;;;;5056273;27;99941;-75
2023/10/23 06:03:34;;;;;;;129.55;18.42;;;;;;;;;;5051979;27;100460;-77
2023/10/23 06:06:02;;;;;;;145.25;20.85;;;;;;;;;;5054227;27;100033;-76
2023/10/23 06:08:28;;;;;;;182.63;21.63;;;;;;;;;;5053944;27;100011;-78
2023/10/23 06:10:55;;;;;;;184.48;19.17;;;;;;;;;;5048834;27;99491;-77
2023/10/23 06:13:21;;;;;;;100.53;16.80;;;;;;;;;;5052217;27;100536;-78
2023/10/23 06:15:49;;;;;;;136.73;19.83;;;;;;;;;;5055957;27;100001;-75
2023/10/23 06:18:15;;;;;;;141.38;20.02;;;;;;;;;;5044624;27;100668;-77
2023/10/23 06:20:42;;;;;;;155.57;19.75;;;;;;;;;;5060420;27;100126;-78
2023/10/23 06:23:08;;;;;;;140.95;19.83;;;;;;;;;;5052126;27;100060;-77
2023/10/23 06:25:34;;;;;;;200.68;20.95;;;;;;;;;;5059147;27;99652;-78
2023/10/23 06:28:03;;;;;;;295.27;23.00;;;;;;;;;;5047543;27;99897;-78
2023/10/23 06:30:30;;;;;;;81.75;14.93;;;;;;;;;;5060198;27;100294;-74
2023/10/23 06:32:56;;;;;;;320.33;24.10;;;;;;;;;;5068342;27;99944;-75
2023/10/23 06:35:23;;;;;;;158.85;17.80;;;;;;;;;;5054957;27;98870;-75
2023/10/23 06:37:50;;;;;;;237.25;22.30;;;;;;;;;;5056601;27;99710;-76
2023/10/23 06:40:16;;;;;;;154.23;20.40;;;;;;;;;;5063693;27;99264;-77
2023/10/23 06:42:43;;;;;;;314.45;24.63;;;;;;;;;;5053363;27;100998;-76
2023/10/23 06:45:10;;;;;;;214.25;20.38;;;;;;;;;;5044581;27;100163;-76
2023/10/23 06:47:37;;;;;;;223.88;21.15;;;;;;;;;;5061449;27;99044;-76
2023/10/23 06:50:04;;;;;;;322.85;24.38;;;;;;;;;;5055479;27;99213;-76
2023/10/23 06:52:31;;;;;;;197.23;21.20;;;;;;;;;;5064032;27;99888;-76
2023/10/23 06:55:00;;;;;;;221.05;24.00;;;;;;;;;;5059710;27;100044;-75
2023/10/23 06:57:26;;;;;;;171.95;21.20;;;;;;;;;;5048365;27;99998;-77
2023/10/23 06:59:54;;;;;;;177.38;21.45;;;;;;;;;;5063250;27;100013;-76
2023/10/23 07:02:21;;;;;;;188.55;19.95;;;;;;;;;;5064203;27;99980;-75
2023/10/23 07:04:48;;;;;;;206.98;20.92;;;;;;;;;;5054651;27;101631;-75
2023/10/23 07:07:14;;;;;;;200.60;24.85;;;;;;;;;;5063838;27;100069;-75
2023/10/23 07:09:58;;;;;;;199.45;23.58;;;;;;;;;;5061540;27;100344;-74
2023/10/23 07:12:26;;;;;;;203.80;19.77;;;;;;;;;;5058502;27;100500;-77
2023/10/23 07:14:52;;;;;;;143.90;20.02;;;;;;;;;;5063496;27;99939;-76
2023/10/23 07:17:19;;;;;;;212.82;20.63;;;;;;;;;;5061846;27;100371;-77
2023/10/23 07:19:45;;;;;;;172.65;18.95;;;;;;;;;;5060637;27;100059;-74
2023/10/23 07:22:12;;;;;;;188.38;20.38;;;;;;;;;;5056200;27;99173;-75
2023/10/23 07:24:39;;;;;;;193.10;21.48;;;;;;;;;;5057048;27;100216;-74
2023/10/23 07:27:05;;;;;;;177.02;19.45;;;;;;;;;;5049181;27;98897;-75
2023/10/23 07:29:31;;;;;;;166.95;18.17;;;;;;;;;;5066793;27;100139;-75
2023/10/23 07:31:58;;;;;;;88.93;17.63;;;;;;;;;;5058697;27;100379;-76
2023/10/23 07:34:25;;;;;;;75.47;15.25;;;;;;;;;;5067084;27;100122;-76
2023/10/23 07:36:51;;;;;;;150.18;19.60;;;;;;;;;;5070994;27;99874;-76
2023/10/23 07:39:18;;;;;;;144.40;20.48;;;;;;;;;;5049532;27;99049;-76
2023/10/23 07:41:44;;;;;;;144.20;19.90;;;;;;;;;;5066657;27;99138;-76
2023/10/23 07:44:11;;;;;;;136.38;18.75;;;;;;;;;;5066998;27;99138;-76
2023/10/23 07:46:37;;;;;;;133.07;18.25;;;;;;;;;;5053426;27;98993;-76
2023/10/23 07:49:04;;;;;;;101.38;17.02;;;;;;;;;;5064488;27;99202;-76
2023/10/23 07:51:30;;;;;;;84.43;16.58;;;;;;;;;;5066724;27;100128;-76
2023/10/23 07:53:57;;;;;;;115.00;16.42;;;;;;;;;;5050071;27;99947;-76
2023/10/23 07:56:23;;;;;;;81.35;14.80;;;;;;;;;;5066131;27;100894;-77
2023/10/23 07:58:51;;;;;;;104.65;15.00;;;;;;;;;;5070017;27;99297;-76
2023/10/23 08:01:17;;;;;;;57.85;14.95;;;;;;;;;;5049908;27;100400;-77
2023/10/23 08:03:44;;;;;;;122.25;14.82;;;;;;;;;;5067147;27;100195;-77
2023/10/23 08:06:11;;;;;;;77.93;13.75;;;;;;;;;;5065917;27;100005;-77
2023/10/23 08:08:38;;;;;;;47.83;13.80;;;;;;;;;;5058881;27;99173;-77
2023/10/23 08:11:08;;;;;;;74.68;14.55;;;;;;;;;;5066747;27;98762;-75
2023/10/23 08:13:35;;;;;;;95.18;15.82;;;;;;;;;;5052324;27;99115;-76
2023/10/23 08:16:03;;;;;;;71.95;15.63;;;;;;;;;;5048936;27;100581;-78
2023/10/23 08:18:30;;;;;;;85.78;15.27;;;;;;;;;;5061407;27;100932;-75
2023/10/23 08:21:14;;;;;;;39.53;15.98;;;;;;;;;;5057563;27;100480;-76
2023/10/23 08:23:41;;;;;;;64.07;14.90;;;;;;;;;;5047021;27;100410;-76
2023/10/23 08:26:07;;;;;;;41.83;13.88;;;;;;;;;;5054127;27;99209;-75
2023/10/23 08:28:34;;;;;;;93.43;15.75;;;;;;;;;;5055049;27;100153;-76
2023/10/23 08:31:21;;;;;;;54.20;14.38;;;;;;;;;;5047204;27;100785;-76
2023/10/23 08:34:04;;;;;;;38.03;14.95;;;;;;;;;;5051593;27;99246;-76
2023/10/23 08:36:31;;;;;;;37.15;15.25;;;;;;;;;;5057301;27;99953;-75
2023/10/23 08:38:57;;;;;;;39.00;15.40;;;;;;;;;;5053511;27;99745;-76
2023/10/23 08:41:25;;;;;;;51.00;15.95;;;;;;;;;;5057149;27;99016;-76
2023/10/23 08:43:52;;;;;;;56.40;15.63;;;;;;;;;;5057917;27;99416;-75
2023/10/23 08:46:19;;;;;;;30.77;14.07;;;;;;;;;;5045697;27;100151;-75
2023/10/23 08:48:46;;;;;;;64.28;15.25;;;;;;;;;;5051308;27;98954;-75
2023/10/23 08:51:14;;;;;;;29.05;15.32;;;;;;;;;;5052048;27;99227;-75
2023/10/23 08:53:54;;;;;;;36.15;14.63;;;;;;;;;;5054429;27;100314;-76
2023/10/23 08:56:39;;;;;;;27.15;14.20;;;;;;;;;;5053322;27;100024;-75
2023/10/23 08:59:08;;;;;;;34.28;15.85;;;;;;;;;;5053457;27;99727;-75
2023/10/23 09:01:34;;;;;;;25.73;15.48;;;;;;;;;;5054437;27;99018;-76
2023/10/23 09:04:04;;;;;;;40.40;18.08;;;;;;;;;;5054930;27;98637;-75
2023/10/23 09:06:32;;;;;;;35.80;16.92;;;;;;;;;;5049432;27;100899;-75
2023/10/23 09:08:59;;;;;;;33.97;15.40;;;;;;;;;;5057022;27;99642;-75
2023/10/23 09:11:39;;;;;;;82.00;19.15;;;;;;;;;;5056917;27;100372;-75
2023/10/23 09:14:06;;;;;;;42.35;15.43;;;;;;;;;;5049892;27;100070;-76
2023/10/23 09:16:32;;;;;;;31.13;15.82;;;;;;;;;;5053023;27;100094;-75
2023/10/23 09:18:59;;;;;;;21.98;15.18;;;;;;;;;;5054550;27;99519;-75
2023/10/23 09:21:25;;;;;;;21.58;14.90;;;;;;;;;;5050937;27;99951;-76
2023/10/23 09:23:58;;;;;;;24.52;13.93;;;;;;;;;;5055821;27;98860;-75
2023/10/23 09:26:25;;;;;;;24.58;13.75;;;;;;;;;;5054492;27;98677;-76
2023/10/23 09:28:52;;;;;;;25.15;14.80;;;;;;;;;;5049439;27;99797;-75
2023/10/23 09:31:19;;;;;;;22.25;13.85;;;;;;;;;;5056311;27;99486;-76
2023/10/23 09:33:47;;;;;;;23.27;13.98;;;;;;;;;;5055365;27;99960;-75
2023/10/23 09:36:14;;;;;;;25.52;15.15;;;;;;;;;;5053169;27;99868;-75
2023/10/23 09:38:43;;;;;;;20.98;14.50;;;;;;;;;;5044687;27;100555;-75
2023/10/23 09:41:10;;;;;;;24.52;14.18;;;;;;;;;;5052078;27;100075;-75
2023/10/23 09:43:47;;;;;;;19.63;13.43;;;;;;;;;;5058132;27;100055;-75
2023/10/23 09:46:14;;;;;;;24.05;13.38;;;;;;;;;;5044017;27;98600;-75
2023/10/23 09:48:44;;;;;;;29.05;13.77;;;;;;;;;;5047401;27;98858;-74
2023/10/23 09:51:11;;;;;;;23.75;15.20;;;;;;;;;;5045172;27;98460;-75
2023/10/23 09:53:38;;;;;;;28.42;15.10;;;;;;;;;;5052874;27;99744;-76
2023/10/23 09:56:06;;;;;;;21.13;14.88;;;;;;;;;;5045075;27;100380;-75
2023/10/23 09:58:32;;;;;;;18.20;13.02;;;;;;;;;;5044181;27;100078;-75
2023/10/23 10:00:59;;;;;;;22.92;12.80;;;;;;;;;;5053682;27;100136;-74
2023/10/23 10:03:27;;;;;;;20.50;12.80;;;;;;;;;;5055866;27;100202;-74
2023/10/23 10:06:09;;;;;;;18.30;11.98;;;;;;;;;;5056236;27;100432;-75
2023/10/23 10:08:37;;;;;;;13.75;10.20;;;;;;;;;;5046152;27;99923;-74
2023/10/23 10:11:05;;;;;;;15.80;11.27;;;;;;;;;;5056834;27;100129;-74
2023/10/23 10:13:32;;;;;;;17.77;11.20;;;;;;;;;;5054715;27;99919;-76
2023/10/23 10:15:59;;;;;;;16.95;11.10;;;;;;;;;;5055969;27;99483;-75
2023/10/23 10:18:25;;;;;;;16.52;11.15;;;;;;;;;;5046279;27;100116;-75
2023/10/23 10:20:55;;;;;;;25.38;12.20;;;;;;;;;;5045536;27;100058;-75
2023/10/23 10:23:22;;;;;;;17.52;11.15;;;;;;;;;;5052845;27;99351;-75
2023/10/23 10:25:49;;;;;;;16.83;11.45;;;;;;;;;;5055298;27;100902;-75
2023/10/23 10:28:17;;;;;;;18.13;10.70;;;;;;;;;;5055623;27;99935;-75
2023/10/23 10:30:47;;;;;;;15.93;10.57;;;;;;;;;;5053221;27;99110;-75
2023/10/23 10:33:24;;;;;;;13.00;10.25;;;;;;;;;;5057089;27;99334;-75
2023/10/23 10:36:11;;;;;;;16.33;10.63;;;;;;;;;;5051643;27;100317;-75
2023/10/23 10:38:37;;;;;;;18.42;10.35;;;;;;;;;;5055362;27;100366;-75
2023/10/23 10:41:20;;;;;;;18.17;9.98;;;;;;;;;;5056054;27;100169;-75
2023/10/23 10:43:51;;;;;;;21.00;10.43;;;;;;;;;;5053840;27;99261;-74
2023/10/23 10:46:21;;;;;;;17.38;11.25;;;;;;;;;;5042728;27;100490;-76
2023/10/23 10:48:49;;;;;;;15.02;8.88;;;;;;;;;;5041524;27;102261;-74
2023/10/23 10:51:17;;;;;;;16.63;10.35;;;;;;;;;;5056812;27;101181;-76
2023/10/23 10:53:47;;;;;;;19.63;9.88;;;;;;;;;;5050057;27;100958;-74
2023/10/23 10:56:14;;;;;;;14.75;8.48;;;;;;;;;;5067150;27;99988;-75
2023/10/23 10:58:44;;;;;;;10.60;8.80;;;;;;;;;;5055341;27;100122;-74
2023/10/23 11:01:10;;;;;;;19.23;8.82;;;;;;;;;;5054009;27;100309;-74
2023/10/23 11:03:37;;;;;;;9.98;8.05;;;;;;;;;;5054066;27;100116;-75
2023/10/23 11:06:05;;;;;;;12.60;8.65;;;;;;;;;;5056947;27;99770;-75
2023/10/23 11:08:31;;;;;;;13.45;8.43;;;;;;;;;;5051605;27;98949;-76
2023/10/23 11:11:01;;;;;;;16.23;9.40;;;;;;;;;;5051179;27;99615;-74
2023/10/23 11:13:28;;;;;;;14.95;9.63;;;;;;;;;;5058288;27;99972;-74
2023/10/23 11:15:55;;;;;;;14.75;9.98;;;;;;;;;;5058363;27;99044;-75
2023/10/23 11:18:22;;;;;;;15.60;8.70;;;;;;;;;;5072850;27;100066;-74
2023/10/23 11:20:49;;;;;;;12.25;8.23;;;;;;;;;;5065348;27;98965;-76
2023/10/23 11:23:20;;;;;;;10.95;8.18;;;;;;;;;;5056333;27;100236;-76
2023/10/23 11:25:48;;;;;;;11.30;7.93;;;;;;;;;;5047646;27;100513;-76
2023/10/23 11:28:18;;;;;;;13.75;8.27;;;;;;;;;;5048032;27;100044;-77
2023/10/23 11:30:48;;;;;;;10.27;7.40;;;;;;;;;;5082278;27;101713;-79
2023/10/23 11:33:15;;;;;;;9.27;7.68;;;;;;;;;;5052738;27;100316;-76
2023/10/23 11:35:42;;;;;;;15.43;7.63;;;;;;;;;;5044759;27;100009;-76
2023/10/23 11:38:12;;;;;;;10.98;6.60;;;;;;;;;;5043763;27;99745;-76
2023/10/23 11:40:40;;;;;;;11.18;7.68;;;;;;;;;;5055712;27;99215;-78
2023/10/23 11:43:09;;;;;;;17.00;9.02;;;;;;;;;;5055895;27;99129;-77
2023/10/23 11:45:35;;;;;;;8.65;7.57;;;;;;;;;;5054757;27;100310;-78
2023/10/23 11:48:02;;;;;;;10.00;7.80;;;;;;;;;;5055465;27;99039;-76
2023/10/23 11:50:29;;;;;;;14.35;8.23;;;;;;;;;;5058760;27;100076;-76
2023/10/23 11:52:56;;;;;;;15.25;8.23;;;;;;;;;;5058504;27;100178;-77
2023/10/23 11:55:26;;;;;;;12.98;8.38;;;;;;;;;;5055932;27;100310;-77
2023/10/23 11:57:54;;;;;;;16.40;9.43;;;;;;;;;;5086234;27;98637;-79
2023/10/23 12:00:21;;;;;;;15.27;8.90;;;;;;;;;;5059299;27;100197;-79
2023/10/23 12:02:48;;;;;;;15.93;8.93;;;;;;;;;;5060609;27;100633;-79
2023/10/23 12:05:16;;;;;;;12.00;8.60;;;;;;;;;;5065489;27;99811;-78
2023/10/23 12:07:44;;;;;;;14.00;8.48;;;;;;;;;;5067153;27;99991;-79
2023/10/23 12:10:11;;;;;;;12.02;9.32;;;;;;;;;;5050648;27;100371;-78
2023/10/23 12:12:39;;;;;;;14.13;9.70;;;;;;;;;;5053533;27;100244;-79
2023/10/23 12:15:06;;;;;;;15.73;10.00;;;;;;;;;;5055018;27;99807;-81
2023/10/23 12:17:33;;;;;;;17.95;9.30;;;;;;;;;;5048004;27;99176;-80
2023/10/23 12:20:00;;;;;;;16.73;9.40;;;;;;;;;;5052254;27;98822;-80
2023/10/23 12:22:27;;;;;;;22.63;10.50;;;;;;;;;;5058479;27;99927;-81
2023/10/23 12:24:54;;;;;;;15.65;9.73;;;;;;;;;;5046920;27;99323;-79
2023/10/23 12:27:21;;;;;;;15.77;9.88;;;;;;;;;;5048701;27;99961;-79
2023/10/23 12:29:47;;;;;;;18.67;10.13;;;;;;;;;;5054240;27;100793;-79
2023/10/23 12:32:14;;;;;;;16.45;9.60;;;;;;;;;;5056709;27;100179;-78
2023/10/23 12:35:03;;;;;;;15.20;9.70;;;;;;;;;;5046053;27;99840;-78
2023/10/23 12:37:30;;;;;;;14.57;9.68;;;;;;;;;;5052602;27;99579;-77
2023/10/23 12:39:58;;;;;;;14.60;9.30;;;;;;;;;;5046252;27;99847;-77
2023/10/23 12:42:25;;;;;;;18.50;9.38;;;;;;;;;;5045010;27;99440;-77
2023/10/23 12:44:51;;;;;;;13.85;9.48;;;;;;;;;;5060556;27;100213;-77
2023/10/23 12:47:18;;;;;;;11.55;8.13;;;;;;;;;;5054025;27;99978;-77
2023/10/23 12:49:44;;;;;;;15.88;9.40;;;;;;;;;;5052847;27;99936;-76
2023/10/23 12:52:11;;;;;;;20.73;9.32;;;;;;;;;;5053360;27;100084;-77
2023/10/23 12:54:38;;;;;;;16.90;9.50;;;;;;;;;;5044882;27;100421;-77
2023/10/23 12:57:05;;;;;;;13.45;9.02;;;;;;;;;;5053806;27;100179;-77
2023/10/23 12:59:32;;;;;;;18.80;9.70;;;;;;;;;;5050025;27;100462;-77
2023/10/23 13:01:58;;;;;;;10.65;8.82;;;;;;;;;;5048937;27;100280;-77
2023/10/23 13:04:25;;;;;;;18.90;8.95;;;;;;;;;;5057680;27;99901;-78
2023/10/23 13:06:53;;;;;;;11.13;8.68;;;;;;;;;;5059057;27;99727;-78
2023/10/23 13:09:19;;;;;;;15.60;8.30;;;;;;;;;;5046246;27;99160;-77
2023/10/23 13:11:46;;;;;;;14.82;9.15;;;;;;;;;;5055110;27;100193;-77
2023/10/23 13:14:13;;;;;;;12.50;7.75;;;;;;;;;;5053872;27;99260;-76
2023/10/23 13:16:40;;;;;;;13.75;9.68;;;;;;;;;;5052750;27;100799;-76
2023/10/23 13:19:07;;;;;;;14.95;9.98;;;;;;;;;;5054121;27;100468;-79
2023/10/23 13:21:34;;;;;;;18.25;10.27;;;;;;;;;;5052439;27;100021;-78
2023/10/23 13:24:04;;;;;;;17.58;10.88;;;;;;;;;;5045526;27;99679;-77
2023/10/23 13:26:31;;;;;;;19.65;10.82;;;;;;;;;;5051987;27;100055;-76
2023/10/23 13:28:58;;;;;;;20.85;11.65;;;;;;;;;;5058835;27;98997;-77
2023/10/23 13:31:25;;;;;;;17.83;12.50;;;;;;;;;;5053066;27;99434;-78
2023/10/23 13:33:52;;;;;;;18.10;14.10;;;;;;;;;;5051020;27;99799;-77
2023/10/23 13:36:18;;;;;;;22.25;14.23;;;;;;;;;;5053463;27;99571;-77
2023/10/23 13:38:45;;;;;;;25.90;14.52;;;;;;;;;;5053616;27;99464;-77
2023/10/23 13:41:11;;;;;;;25.33;15.05;;;;;;;;;;5061139;27;99293;-77
2023/10/23 13:43:38;;;;;;;24.35;16.02;;;;;;;;;;5052864;27;100828;-77
2023/10/23 13:46:04;;;;;;;23.38;15.23;;;;;;;;;;5061573;27;99163;-77
2023/10/23 13:48:31;;;;;;;20.45;14.45;;;;;;;;;;5044761;27;99093;-77
2023/10/23 13:50:58;;;;;;;17.35;14.38;;;;;;;;;;5056314;27;99982;-77
2023/10/23 13:53:24;;;;;;;19.48;14.48;;;;;;;;;;5048657;27;99915;-77
2023/10/23 13:55:51;;;;;;;22.67;13.55;;;;;;;;;;5050434;27;101299;-78
2023/10/23 13:58:18;;;;;;;23.27;14.02;;;;;;;;;;5053574;27;99457;-77
2023/10/23 14:00:45;;;;;;;21.60;14.00;;;;;;;;;;5059366;27;99983;-77
2023/10/23 14:03:11;;;;;;;21.60;14.68;;;;;;;;;;5055887;27;100546;-78
2023/10/23 14:05:38;;;;;;;17.92;13.60;;;;;;;;;;5052896;27;101592;-78
2023/10/23 14:08:05;;;;;;;24.17;15.18;;;;;;;;;;5061681;27;100105;-78
2023/10/23 14:10:31;;;;;;;37.25;15.90;;;;;;;;;;5048609;27;99988;-77
2023/10/23 14:12:58;;;;;;;21.95;15.07;;;;;;;;;;5053034;27;100479;-78
2023/10/23 14:15:25;;;;;;;20.75;13.43;;;;;;;;;;5052298;27;99969;-78
2023/10/23 14:17:51;;;;;;;17.73;14.38;;;;;;;;;;5059665;27;100176;-79
2023/10/23 14:20:19;;;;;;;30.23;16.17;;;;;;;;;;5054813;27;99993;-76